sensor_id;sensor_type;location;lat;lon;timestamp;P1;durP1;ratioP1;P2;durP2;ratioP2
66893;SDS011;53801;55.786;49.142;2023-02-01T00:01:43;39.77;;;12.00;;
66893;SDS011;53801;55.786;49.142;2023-02-01T00:04:08;44.23;;;11.90;;
66893;SDS011;53801;55.786;49.142;2023-02-01T00:06:34;31.52;;;11.05;;
66893;SDS011;53801;55.786;49.142;2023-02-01T00:09:02;39.50;;;11.23;;
66893;SDS011;53801;55.786;49.142;2023-02-01T00:11:27;37.00;;;11.20;;
66893;SDS011;53801;55.786;49.142;2023-02-01T00:13:53;33.87;;;11.37;;
66893;SDS011;53801;55.786;49.142;2023-02-01T00:16:19;33.60;;;10.27;;
66893;SDS011;53801;55.786;49.142;2023-02-01T00:18:45;34.00;;;11.52;;
66893;SDS011;53801;55.786;49.142;2023-02-01T00:21:11;43.28;;;12.55;;
66893;SDS011;53801;55.786;49.142;2023-02-01T00:23:37;42.42;;;11.57;;
66893;SDS011;53801;55.786;49.142;2023-02-01T00:26:04;42.97;;;13.07;;
66893;SDS011;53801;55.786;49.142;2023-02-01T00:28:30;44.97;;;13.13;;
66893;SDS011;53801;55.786;49.142;2023-02-01T00:30:59;34.28;;;11.32;;
66893;SDS011;53801;55.786;49.142;2023-02-01T00:33:25;34.10;;;11.40;;
66893;SDS011;53801;55.786;49.142;2023-02-01T00:35:50;39.40;;;11.95;;
66893;SDS011;53801;55.786;49.142;2023-02-01T00:38:16;38.10;;;12.53;;
66893;SDS011;53801;55.786;49.142;2023-02-01T00:40:41;34.07;;;12.00;;
66893;SDS011;53801;55.786;49.142;2023-02-01T00:43:07;39.90;;;11.27;;
66893;SDS011;53801;55.786;49.142;2023-02-01T00:45:32;45.37;;;13.40;;
66893;SDS011;53801;55.786;49.142;2023-02-01T00:47:57;42.45;;;12.77;;
66893;SDS011;53801;55.786;49.142;2023-02-01T00:50:23;38.40;;;12.00;;
66893;SDS011;53801;55.786;49.142;2023-02-01T00:52:48;37.60;;;11.97;;
66893;SDS011;53801;55.786;49.142;2023-02-01T00:55:14;44.47;;;13.93;;
66893;SDS011;53801;55.786;49.142;2023-02-01T00:57:39;37.93;;;12.57;;
66893;SDS011;53801;55.786;49.142;2023-02-01T01:00:05;44.17;;;12.87;;
66893;SDS011;53801;55.786;49.142;2023-02-01T01:02:30;41.38;;;13.13;;
66893;SDS011;53801;55.786;49.142;2023-02-01T01:04:57;40.10;;;12.63;;
66893;SDS011;53801;55.786;49.142;2023-02-01T01:07:23;42.15;;;12.02;;
66893;SDS011;53801;55.786;49.142;2023-02-01T01:09:48;36.00;;;11.83;;
66893;SDS011;53801;55.786;49.142;2023-02-01T01:12:14;40.73;;;12.67;;
66893;SDS011;53801;55.786;49.142;2023-02-01T01:14:39;42.57;;;12.80;;
66893;SDS011;53801;55.786;49.142;2023-02-01T01:17:04;32.47;;;11.33;;
66893;SDS011;53801;55.786;49.142;2023-02-01T01:19:30;32.20;;;12.07;;
66893;SDS011;53801;55.786;49.142;2023-02-01T01:21:55;42.05;;;12.30;;
66893;SDS011;53801;55.786;49.142;2023-02-01T01:24:21;31.95;;;10.75;;
66893;SDS011;53801;55.786;49.142;2023-02-01T01:26:46;36.50;;;11.30;;
66893;SDS011;53801;55.786;49.142;2023-02-01T01:29:11;33.77;;;11.27;;
66893;SDS011;53801;55.786;49.142;2023-02-01T01:31:37;38.37;;;11.87;;
66893;SDS011;53801;55.786;49.142;2023-02-01T01:34:02;32.83;;;11.13;;
66893;SDS011;53801;55.786;49.142;2023-02-01T01:36:28;39.60;;;11.82;;
66893;SDS011;53801;55.786;49.142;2023-02-01T01:38:54;37.78;;;11.80;;
66893;SDS011;53801;55.786;49.142;2023-02-01T01:41:24;38.50;;;10.67;;
66893;SDS011;53801;55.786;49.142;2023-02-01T01:46:22;39.97;;;11.17;;
66893;SDS011;53801;55.786;49.142;2023-02-01T01:48:49;35.42;;;11.35;;
66893;SDS011;53801;55.786;49.142;2023-02-01T01:51:16;36.35;;;11.40;;
66893;SDS011;53801;55.786;49.142;2023-02-01T01:53:45;40.60;;;12.43;;
66893;SDS011;53801;55.786;49.142;2023-02-01T01:56:12;36.83;;;11.10;;
66893;SDS011;53801;55.786;49.142;2023-02-01T01:58:39;33.77;;;11.03;;
66893;SDS011;53801;55.786;49.142;2023-02-01T02:01:04;32.13;;;10.00;;
66893;SDS011;53801;55.786;49.142;2023-02-01T02:03:35;28.07;;;9.40;;
66893;SDS011;53801;55.786;49.142;2023-02-01T02:06:02;37.38;;;10.88;;
66893;SDS011;53801;55.786;49.142;2023-02-01T02:08:28;32.97;;;11.53;;
66893;SDS011;53801;55.786;49.142;2023-02-01T02:10:53;34.28;;;9.68;;
66893;SDS011;53801;55.786;49.142;2023-02-01T02:13:25;33.45;;;11.60;;
66893;SDS011;53801;55.786;49.142;2023-02-01T02:18:55;34.40;;;11.05;;
66893;SDS011;53801;55.786;49.142;2023-02-01T02:23:54;22.33;;;9.37;;
66893;SDS011;53801;55.786;49.142;2023-02-01T02:41:49;33.53;;;10.30;;
66893;SDS011;53801;55.786;49.142;2023-02-01T02:44:38;26.07;;;9.37;;
66893;SDS011;53801;55.786;49.142;2023-02-01T02:47:27;24.85;;;9.50;;
66893;SDS011;53801;55.786;49.142;2023-02-01T02:52:53;32.90;;;10.82;;
66893;SDS011;53801;55.786;49.142;2023-02-01T02:55:40;28.92;;;10.60;;
66893;SDS011;53801;55.786;49.142;2023-02-01T02:58:06;35.37;;;10.07;;
66893;SDS011;53801;55.786;49.142;2023-02-01T03:00:51;30.52;;;9.35;;
66893;SDS011;53801;55.786;49.142;2023-02-01T03:03:37;24.65;;;8.48;;
66893;SDS011;53801;55.786;49.142;2023-02-01T03:06:21;23.00;;;8.38;;
66893;SDS011;53801;55.786;49.142;2023-02-01T03:08:47;30.65;;;9.05;;
66893;SDS011;53801;55.786;49.142;2023-02-01T03:11:13;28.17;;;9.80;;
66893;SDS011;53801;55.786;49.142;2023-02-01T03:18:42;25.77;;;8.33;;
66893;SDS011;53801;55.786;49.142;2023-02-01T03:21:11;28.10;;;9.77;;
66893;SDS011;53801;55.786;49.142;2023-02-01T03:23:38;26.67;;;8.45;;
66893;SDS011;53801;55.786;49.142;2023-02-01T03:26:04;27.80;;;9.87;;
66893;SDS011;53801;55.786;49.142;2023-02-01T03:28:31;24.95;;;9.07;;
66893;SDS011;53801;55.786;49.142;2023-02-01T03:30:58;22.27;;;8.50;;
66893;SDS011;53801;55.786;49.142;2023-02-01T03:33:25;24.52;;;9.40;;
66893;SDS011;53801;55.786;49.142;2023-02-01T03:41:21;22.17;;;7.95;;
66893;SDS011;53801;55.786;49.142;2023-02-01T03:43:56;27.63;;;9.18;;
66893;SDS011;53801;55.786;49.142;2023-02-01T03:46:32;25.63;;;9.25;;
66893;SDS011;53801;55.786;49.142;2023-02-01T03:49:00;28.47;;;9.50;;
66893;SDS011;53801;55.786;49.142;2023-02-01T03:51:27;28.73;;;10.48;;
66893;SDS011;53801;55.786;49.142;2023-02-01T03:53:53;30.20;;;9.02;;
66893;SDS011;53801;55.786;49.142;2023-02-01T03:56:20;28.10;;;9.88;;
66893;SDS011;53801;55.786;49.142;2023-02-01T03:58:46;29.90;;;9.20;;
66893;SDS011;53801;55.786;49.142;2023-02-01T04:01:24;25.33;;;8.82;;
66893;SDS011;53801;55.786;49.142;2023-02-01T04:03:50;24.67;;;8.07;;
66893;SDS011;53801;55.786;49.142;2023-02-01T04:06:19;28.73;;;8.93;;
66893;SDS011;53801;55.786;49.142;2023-02-01T04:08:44;28.20;;;9.23;;
66893;SDS011;53801;55.786;49.142;2023-02-01T04:11:10;31.60;;;8.30;;
66893;SDS011;53801;55.786;49.142;2023-02-01T04:13:35;27.88;;;9.32;;
66893;SDS011;53801;55.786;49.142;2023-02-01T04:16:01;26.25;;;9.75;;
66893;SDS011;53801;55.786;49.142;2023-02-01T04:18:26;31.57;;;8.53;;
66893;SDS011;53801;55.786;49.142;2023-02-01T04:20:51;31.23;;;9.63;;
66893;SDS011;53801;55.786;49.142;2023-02-01T04:23:17;24.43;;;8.50;;
66893;SDS011;53801;55.786;49.142;2023-02-01T04:25:42;27.13;;;9.00;;
66893;SDS011;53801;55.786;49.142;2023-02-01T04:28:08;23.50;;;8.07;;
66893;SDS011;53801;55.786;49.142;2023-02-01T04:30:34;28.63;;;9.23;;
66893;SDS011;53801;55.786;49.142;2023-02-01T04:32:59;26.87;;;8.87;;
66893;SDS011;53801;55.786;49.142;2023-02-01T04:35:24;22.88;;;7.80;;
66893;SDS011;53801;55.786;49.142;2023-02-01T04:37:50;22.65;;;7.95;;
66893;SDS011;53801;55.786;49.142;2023-02-01T04:40:15;27.17;;;9.17;;
66893;SDS011;53801;55.786;49.142;2023-02-01T04:42:41;26.20;;;9.10;;
66893;SDS011;53801;55.786;49.142;2023-02-01T04:45:06;24.25;;;8.55;;
66893;SDS011;53801;55.786;49.142;2023-02-01T04:47:32;21.33;;;7.05;;
66893;SDS011;53801;55.786;49.142;2023-02-01T04:49:57;22.57;;;7.67;;
66893;SDS011;53801;55.786;49.142;2023-02-01T04:52:23;25.13;;;8.43;;
66893;SDS011;53801;55.786;49.142;2023-02-01T04:54:51;27.80;;;7.95;;
66893;SDS011;53801;55.786;49.142;2023-02-01T04:57:19;30.27;;;8.00;;
66893;SDS011;53801;55.786;49.142;2023-02-01T04:59:44;28.47;;;7.40;;
66893;SDS011;53801;55.786;49.142;2023-02-01T05:02:10;24.53;;;8.17;;
66893;SDS011;53801;55.786;49.142;2023-02-01T05:04:35;24.07;;;7.40;;
66893;SDS011;53801;55.786;49.142;2023-02-01T05:07:00;33.57;;;9.23;;
66893;SDS011;53801;55.786;49.142;2023-02-01T05:09:26;28.23;;;9.00;;
66893;SDS011;53801;55.786;49.142;2023-02-01T05:11:51;23.48;;;7.30;;
66893;SDS011;53801;55.786;49.142;2023-02-01T05:14:35;24.20;;;8.23;;
66893;SDS011;53801;55.786;49.142;2023-02-01T05:17:01;26.20;;;8.50;;
66893;SDS011;53801;55.786;49.142;2023-02-01T05:19:26;25.30;;;7.68;;
66893;SDS011;53801;55.786;49.142;2023-02-01T05:22:00;26.20;;;7.73;;
66893;SDS011;53801;55.786;49.142;2023-02-01T05:24:28;22.63;;;7.40;;
66893;SDS011;53801;55.786;49.142;2023-02-01T05:26:54;25.50;;;7.97;;
66893;SDS011;53801;55.786;49.142;2023-02-01T05:29:19;23.17;;;7.70;;
66893;SDS011;53801;55.786;49.142;2023-02-01T05:31:45;25.83;;;7.63;;
66893;SDS011;53801;55.786;49.142;2023-02-01T05:34:11;25.65;;;7.55;;
66893;SDS011;53801;55.786;49.142;2023-02-01T05:36:36;20.80;;;7.37;;
66893;SDS011;53801;55.786;49.142;2023-02-01T05:39:02;21.05;;;6.45;;
66893;SDS011;53801;55.786;49.142;2023-02-01T05:41:27;23.50;;;8.07;;
66893;SDS011;53801;55.786;49.142;2023-02-01T05:43:55;26.25;;;8.60;;
66893;SDS011;53801;55.786;49.142;2023-02-01T05:46:20;25.73;;;8.67;;
66893;SDS011;53801;55.786;49.142;2023-02-01T05:48:46;24.23;;;8.33;;
66893;SDS011;53801;55.786;49.142;2023-02-01T05:51:11;23.05;;;7.90;;
66893;SDS011;53801;55.786;49.142;2023-02-01T05:53:37;24.97;;;8.07;;
66893;SDS011;53801;55.786;49.142;2023-02-01T05:56:03;22.97;;;8.27;;
66893;SDS011;53801;55.786;49.142;2023-02-01T05:58:29;26.00;;;8.30;;
66893;SDS011;53801;55.786;49.142;2023-02-01T06:00:54;25.83;;;7.90;;
66893;SDS011;53801;55.786;49.142;2023-02-01T06:03:20;22.77;;;8.17;;
66893;SDS011;53801;55.786;49.142;2023-02-01T06:05:46;21.30;;;7.03;;
66893;SDS011;53801;55.786;49.142;2023-02-01T06:08:12;23.33;;;7.53;;
66893;SDS011;53801;55.786;49.142;2023-02-01T06:10:37;23.50;;;7.57;;
66893;SDS011;53801;55.786;49.142;2023-02-01T06:13:02;23.98;;;7.78;;
66893;SDS011;53801;55.786;49.142;2023-02-01T06:15:28;28.73;;;8.57;;
66893;SDS011;53801;55.786;49.142;2023-02-01T06:17:56;21.45;;;6.90;;
66893;SDS011;53801;55.786;49.142;2023-02-01T06:20:22;18.40;;;6.85;;
66893;SDS011;53801;55.786;49.142;2023-02-01T06:22:48;23.48;;;7.18;;
66893;SDS011;53801;55.786;49.142;2023-02-01T06:25:13;21.63;;;7.40;;
66893;SDS011;53801;55.786;49.142;2023-02-01T06:27:39;24.33;;;7.70;;
66893;SDS011;53801;55.786;49.142;2023-02-01T06:30:05;24.07;;;7.17;;
66893;SDS011;53801;55.786;49.142;2023-02-01T06:32:30;21.55;;;7.18;;
66893;SDS011;53801;55.786;49.142;2023-02-01T06:34:56;19.67;;;7.17;;
66893;SDS011;53801;55.786;49.142;2023-02-01T06:37:22;23.83;;;8.20;;
66893;SDS011;53801;55.786;49.142;2023-02-01T06:39:48;24.25;;;7.28;;
66893;SDS011;53801;55.786;49.142;2023-02-01T06:42:13;18.35;;;6.35;;
66893;SDS011;53801;55.786;49.142;2023-02-01T16:26:07;9.13;;;2.43;;
66893;SDS011;53801;55.786;49.142;2023-02-01T16:28:33;6.97;;;1.95;;
66893;SDS011;53801;55.786;49.142;2023-02-01T16:30:59;8.80;;;1.88;;
66893;SDS011;53801;55.786;49.142;2023-02-01T16:33:25;7.97;;;2.97;;
66893;SDS011;53801;55.786;49.142;2023-02-01T16:35:51;5.40;;;2.83;;
66893;SDS011;53801;55.786;49.142;2023-02-01T16:38:18;8.35;;;3.00;;
66893;SDS011;53801;55.786;49.142;2023-02-01T16:40:46;12.43;;;2.63;;
66893;SDS011;53801;55.786;49.142;2023-02-01T16:45:38;8.63;;;2.08;;
66893;SDS011;53801;55.786;49.142;2023-02-01T16:48:05;5.13;;;1.90;;
66893;SDS011;53801;55.786;49.142;2023-02-01T16:50:31;10.13;;;2.60;;
66893;SDS011;53801;55.786;49.142;2023-02-01T16:52:57;5.13;;;1.50;;
66893;SDS011;53801;55.786;49.142;2023-02-01T16:55:22;6.07;;;2.03;;
66893;SDS011;53801;55.786;49.142;2023-02-01T16:57:48;7.00;;;2.10;;
66893;SDS011;53801;55.786;49.142;2023-02-01T17:00:13;7.65;;;2.65;;
66893;SDS011;53801;55.786;49.142;2023-02-01T17:02:42;7.07;;;1.70;;
66893;SDS011;53801;55.786;49.142;2023-02-01T17:05:09;8.45;;;2.13;;
66893;SDS011;53801;55.786;49.142;2023-02-01T17:07:34;9.80;;;2.38;;
66893;SDS011;53801;55.786;49.142;2023-02-01T17:10:00;8.63;;;2.60;;
66893;SDS011;53801;55.786;49.142;2023-02-01T17:12:29;12.75;;;3.13;;
66893;SDS011;53801;55.786;49.142;2023-02-01T17:14:57;8.25;;;2.15;;
66893;SDS011;53801;55.786;49.142;2023-02-01T17:17:23;8.27;;;2.20;;
66893;SDS011;53801;55.786;49.142;2023-02-01T17:19:51;9.77;;;2.05;;
66893;SDS011;53801;55.786;49.142;2023-02-01T17:22:18;6.15;;;1.73;;
66893;SDS011;53801;55.786;49.142;2023-02-01T17:24:44;9.18;;;2.83;;
66893;SDS011;53801;55.786;49.142;2023-02-01T17:27:09;5.97;;;1.80;;
66893;SDS011;53801;55.786;49.142;2023-02-01T17:29:38;6.93;;;2.10;;
66893;SDS011;53801;55.786;49.142;2023-02-01T17:32:05;7.87;;;2.27;;
66893;SDS011;53801;55.786;49.142;2023-02-01T17:34:31;6.40;;;2.10;;
66893;SDS011;53801;55.786;49.142;2023-02-01T17:36:56;5.55;;;1.52;;
66893;SDS011;53801;55.786;49.142;2023-02-01T17:39:22;9.23;;;2.50;;
66893;SDS011;53801;55.786;49.142;2023-02-01T17:42:08;5.28;;;1.75;;
66893;SDS011;53801;55.786;49.142;2023-02-01T17:44:34;10.07;;;3.08;;
66893;SDS011;53801;55.786;49.142;2023-02-01T17:47:00;5.13;;;1.63;;
66893;SDS011;53801;55.786;49.142;2023-02-01T17:49:25;5.60;;;1.70;;
66893;SDS011;53801;55.786;49.142;2023-02-01T17:51:53;8.48;;;1.77;;
66893;SDS011;53801;55.786;49.142;2023-02-01T17:54:19;7.57;;;1.95;;
66893;SDS011;53801;55.786;49.142;2023-02-01T17:56:45;6.13;;;2.30;;
66893;SDS011;53801;55.786;49.142;2023-02-01T17:59:14;8.85;;;2.33;;
66893;SDS011;53801;55.786;49.142;2023-02-01T18:01:40;6.68;;;2.13;;
66893;SDS011;53801;55.786;49.142;2023-02-01T18:04:09;6.20;;;1.85;;
66893;SDS011;53801;55.786;49.142;2023-02-01T18:06:35;6.53;;;1.77;;
66893;SDS011;53801;55.786;49.142;2023-02-01T18:09:01;5.68;;;1.60;;
66893;SDS011;53801;55.786;49.142;2023-02-01T18:11:27;4.13;;;1.52;;
66893;SDS011;53801;55.786;49.142;2023-02-01T18:13:57;5.38;;;1.73;;
66893;SDS011;53801;55.786;49.142;2023-02-01T18:16:23;6.53;;;1.90;;
66893;SDS011;53801;55.786;49.142;2023-02-01T18:18:49;5.33;;;1.67;;
66893;SDS011;53801;55.786;49.142;2023-02-01T18:21:15;6.50;;;1.83;;
66893;SDS011;53801;55.786;49.142;2023-02-01T18:23:41;4.95;;;1.80;;
66893;SDS011;53801;55.786;49.142;2023-02-01T18:26:08;5.20;;;2.00;;
66893;SDS011;53801;55.786;49.142;2023-02-01T18:28:35;6.40;;;1.50;;
66893;SDS011;53801;55.786;49.142;2023-02-01T18:31:00;5.90;;;1.93;;
66893;SDS011;53801;55.786;49.142;2023-02-01T18:33:27;4.45;;;1.50;;
66893;SDS011;53801;55.786;49.142;2023-02-01T18:35:52;3.63;;;1.13;;
66893;SDS011;53801;55.786;49.142;2023-02-01T18:38:21;3.80;;;1.00;;
66893;SDS011;53801;55.786;49.142;2023-02-01T18:40:51;6.50;;;1.60;;
66893;SDS011;53801;55.786;49.142;2023-02-01T18:43:17;5.40;;;1.45;;
66893;SDS011;53801;55.786;49.142;2023-02-01T18:45:43;3.87;;;1.30;;
66893;SDS011;53801;55.786;49.142;2023-02-01T18:48:10;7.55;;;1.60;;
66893;SDS011;53801;55.786;49.142;2023-02-01T18:50:37;6.70;;;1.67;;
66893;SDS011;53801;55.786;49.142;2023-02-01T18:53:05;5.43;;;1.97;;
66893;SDS011;53801;55.786;49.142;2023-02-01T18:55:33;5.25;;;1.25;;
66893;SDS011;53801;55.786;49.142;2023-02-01T18:58:04;2.70;;;1.10;;
66893;SDS011;53801;55.786;49.142;2023-02-01T19:00:54;3.15;;;1.00;;
66893;SDS011;53801;55.786;49.142;2023-02-01T19:03:20;3.28;;;1.00;;
66893;SDS011;53801;55.786;49.142;2023-02-01T19:06:01;4.07;;;1.30;;
66893;SDS011;53801;55.786;49.142;2023-02-01T19:08:26;3.63;;;1.15;;
66893;SDS011;53801;55.786;49.142;2023-02-01T19:10:52;5.07;;;1.57;;
66893;SDS011;53801;55.786;49.142;2023-02-01T19:13:18;3.45;;;1.55;;
66893;SDS011;53801;55.786;49.142;2023-02-01T19:15:47;6.30;;;1.27;;
66893;SDS011;53801;55.786;49.142;2023-02-01T19:18:14;4.28;;;1.40;;
66893;SDS011;53801;55.786;49.142;2023-02-01T19:20:44;7.67;;;2.27;;
66893;SDS011;53801;55.786;49.142;2023-02-01T19:23:11;3.80;;;1.30;;
66893;SDS011;53801;55.786;49.142;2023-02-01T19:25:37;4.65;;;1.25;;
66893;SDS011;53801;55.786;49.142;2023-02-01T19:28:05;9.40;;;1.70;;
66893;SDS011;53801;55.786;49.142;2023-02-01T19:30:51;5.47;;;1.55;;
66893;SDS011;53801;55.786;49.142;2023-02-01T19:33:27;7.00;;;1.48;;
66893;SDS011;53801;55.786;49.142;2023-02-01T19:35:57;4.45;;;1.67;;
66893;SDS011;53801;55.786;49.142;2023-02-01T19:38:22;6.85;;;1.20;;
66893;SDS011;53801;55.786;49.142;2023-02-01T19:40:48;6.60;;;1.43;;
66893;SDS011;53801;55.786;49.142;2023-02-01T19:43:14;4.97;;;1.25;;
66893;SDS011;53801;55.786;49.142;2023-02-01T19:45:40;3.53;;;0.90;;
66893;SDS011;53801;55.786;49.142;2023-02-01T19:48:07;4.93;;;1.33;;
66893;SDS011;53801;55.786;49.142;2023-02-01T19:50:33;3.85;;;1.00;;
66893;SDS011;53801;55.786;49.142;2023-02-01T19:53:02;6.27;;;1.67;;
66893;SDS011;53801;55.786;49.142;2023-02-01T19:58:02;5.53;;;1.50;;
66893;SDS011;53801;55.786;49.142;2023-02-01T20:00:36;5.78;;;1.10;;
66893;SDS011;53801;55.786;49.142;2023-02-01T20:03:02;3.53;;;0.77;;
66893;SDS011;53801;55.786;49.142;2023-02-01T20:05:28;3.85;;;0.95;;
66893;SDS011;53801;55.786;49.142;2023-02-01T20:08:03;4.37;;;1.30;;
66893;SDS011;53801;55.786;49.142;2023-02-01T20:13:33;7.60;;;1.60;;
66893;SDS011;53801;55.786;49.142;2023-02-01T20:16:01;3.30;;;0.50;;
66893;SDS011;53801;55.786;49.142;2023-02-01T20:18:27;7.18;;;1.10;;
66893;SDS011;53801;55.786;49.142;2023-02-01T20:20:57;4.90;;;1.38;;
66893;SDS011;53801;55.786;49.142;2023-02-01T20:23:24;5.30;;;1.23;;
66893;SDS011;53801;55.786;49.142;2023-02-01T20:25:49;5.30;;;1.50;;
66893;SDS011;53801;55.786;49.142;2023-02-01T20:28:15;3.58;;;1.17;;
66893;SDS011;53801;55.786;49.142;2023-02-01T20:30:43;4.17;;;0.90;;
66893;SDS011;53801;55.786;49.142;2023-02-01T20:33:11;3.63;;;1.00;;
66893;SDS011;53801;55.786;49.142;2023-02-01T20:35:36;7.30;;;1.50;;
66893;SDS011;53801;55.786;49.142;2023-02-01T20:38:02;2.90;;;1.30;;
66893;SDS011;53801;55.786;49.142;2023-02-01T20:40:28;5.32;;;1.33;;
66893;SDS011;53801;55.786;49.142;2023-02-01T20:42:55;4.20;;;1.02;;
66893;SDS011;53801;55.786;49.142;2023-02-01T20:45:21;7.33;;;0.93;;
66893;SDS011;53801;55.786;49.142;2023-02-01T20:47:50;4.00;;;1.27;;
66893;SDS011;53801;55.786;49.142;2023-02-01T20:50:17;5.22;;;1.77;;
66893;SDS011;53801;55.786;49.142;2023-02-01T20:52:42;4.63;;;1.37;;
66893;SDS011;53801;55.786;49.142;2023-02-01T20:55:07;5.20;;;1.13;;
66893;SDS011;53801;55.786;49.142;2023-02-01T20:57:33;4.93;;;1.38;;
66893;SDS011;53801;55.786;49.142;2023-02-01T20:59:58;4.43;;;1.30;;
66893;SDS011;53801;55.786;49.142;2023-02-01T21:02:24;4.40;;;1.00;;
66893;SDS011;53801;55.786;49.142;2023-02-01T21:04:50;4.35;;;1.23;;
66893;SDS011;53801;55.786;49.142;2023-02-01T21:07:16;3.60;;;1.17;;
66893;SDS011;53801;55.786;49.142;2023-02-01T21:09:41;5.07;;;1.57;;
66893;SDS011;53801;55.786;49.142;2023-02-01T21:12:07;5.82;;;1.60;;
66893;SDS011;53801;55.786;49.142;2023-02-01T21:14:33;5.28;;;1.30;;
66893;SDS011;53801;55.786;49.142;2023-02-01T21:16:59;7.10;;;1.73;;
66893;SDS011;53801;55.786;49.142;2023-02-01T21:19:24;5.35;;;1.25;;
66893;SDS011;53801;55.786;49.142;2023-02-01T21:21:51;5.40;;;1.27;;
66893;SDS011;53801;55.786;49.142;2023-02-01T21:24:17;2.00;;;0.60;;
66893;SDS011;53801;55.786;49.142;2023-02-01T21:26:45;2.83;;;1.05;;
66893;SDS011;53801;55.786;49.142;2023-02-01T21:29:11;8.83;;;2.20;;
66893;SDS011;53801;55.786;49.142;2023-02-01T21:31:37;5.40;;;1.17;;
66893;SDS011;53801;55.786;49.142;2023-02-01T21:34:03;3.72;;;1.38;;
66893;SDS011;53801;55.786;49.142;2023-02-01T21:36:32;3.87;;;0.90;;
66893;SDS011;53801;55.786;49.142;2023-02-01T21:39:01;5.22;;;1.30;;
66893;SDS011;53801;55.786;49.142;2023-02-01T21:41:34;6.32;;;1.73;;
66893;SDS011;53801;55.786;49.142;2023-02-01T21:44:28;4.30;;;1.20;;
66893;SDS011;53801;55.786;49.142;2023-02-01T21:46:53;5.60;;;1.23;;
66893;SDS011;53801;55.786;49.142;2023-02-01T21:49:20;2.13;;;0.80;;
66893;SDS011;53801;55.786;49.142;2023-02-01T21:51:45;2.53;;;0.90;;
66893;SDS011;53801;55.786;49.142;2023-02-01T21:54:11;4.18;;;1.25;;
66893;SDS011;53801;55.786;49.142;2023-02-01T21:56:36;4.23;;;1.20;;
66893;SDS011;53801;55.786;49.142;2023-02-01T21:59:02;4.25;;;1.45;;
66893;SDS011;53801;55.786;49.142;2023-02-01T22:04:00;5.28;;;1.33;;
66893;SDS011;53801;55.786;49.142;2023-02-01T22:06:35;4.13;;;1.20;;
66893;SDS011;53801;55.786;49.142;2023-02-01T22:09:01;2.47;;;0.65;;
66893;SDS011;53801;55.786;49.142;2023-02-01T22:11:27;6.70;;;1.70;;
66893;SDS011;53801;55.786;49.142;2023-02-01T22:13:53;5.73;;;1.70;;
66893;SDS011;53801;55.786;49.142;2023-02-01T22:16:21;6.30;;;1.42;;
66893;SDS011;53801;55.786;49.142;2023-02-01T22:18:48;6.40;;;1.55;;
66893;SDS011;53801;55.786;49.142;2023-02-01T22:21:14;4.87;;;1.30;;
66893;SDS011;53801;55.786;49.142;2023-02-01T22:23:42;8.70;;;2.58;;
66893;SDS011;53801;55.786;49.142;2023-02-01T22:26:12;5.27;;;1.10;;
66893;SDS011;53801;55.786;49.142;2023-02-01T22:28:40;5.47;;;1.85;;
66893;SDS011;53801;55.786;49.142;2023-02-01T22:31:07;4.78;;;1.40;;
66893;SDS011;53801;55.786;49.142;2023-02-01T22:33:36;3.13;;;1.02;;
66893;SDS011;53801;55.786;49.142;2023-02-01T22:36:02;4.00;;;0.90;;
66893;SDS011;53801;55.786;49.142;2023-02-01T22:38:31;9.80;;;1.03;;
66893;SDS011;53801;55.786;49.142;2023-02-01T22:41:01;4.38;;;1.10;;
66893;SDS011;53801;55.786;49.142;2023-02-01T22:43:45;4.47;;;1.30;;
66893;SDS011;53801;55.786;49.142;2023-02-01T22:46:29;4.22;;;0.98;;
66893;SDS011;53801;55.786;49.142;2023-02-01T22:49:23;3.92;;;1.15;;
66893;SDS011;53801;55.786;49.142;2023-02-01T22:51:48;4.40;;;1.20;;
66893;SDS011;53801;55.786;49.142;2023-02-01T22:57:12;3.95;;;1.25;;
66893;SDS011;53801;55.786;49.142;2023-02-01T22:59:38;6.50;;;1.50;;
66893;SDS011;53801;55.786;49.142;2023-02-01T23:02:03;4.47;;;1.23;;
66893;SDS011;53801;55.786;49.142;2023-02-01T23:04:29;7.07;;;1.70;;
66893;SDS011;53801;55.786;49.142;2023-02-01T23:06:54;3.10;;;0.60;;
66893;SDS011;53801;55.786;49.142;2023-02-01T23:09:25;7.53;;;1.23;;
66893;SDS011;53801;55.786;49.142;2023-02-01T23:11:51;3.08;;;0.70;;
66893;SDS011;53801;55.786;49.142;2023-02-01T23:14:16;4.82;;;1.30;;
66893;SDS011;53801;55.786;49.142;2023-02-01T23:16:42;5.03;;;1.20;;
66893;SDS011;53801;55.786;49.142;2023-02-01T23:19:08;3.33;;;0.90;;
66893;SDS011;53801;55.786;49.142;2023-02-01T23:21:33;2.87;;;0.87;;
66893;SDS011;53801;55.786;49.142;2023-02-01T23:23:59;3.40;;;1.03;;
66893;SDS011;53801;55.786;49.142;2023-02-01T23:26:25;6.88;;;1.05;;
66893;SDS011;53801;55.786;49.142;2023-02-01T23:28:52;4.67;;;1.00;;
66893;SDS011;53801;55.786;49.142;2023-02-01T23:31:21;2.90;;;1.00;;
66893;SDS011;53801;55.786;49.142;2023-02-01T23:33:47;2.90;;;0.90;;
66893;SDS011;53801;55.786;49.142;2023-02-01T23:36:14;4.07;;;1.10;;
66893;SDS011;53801;55.786;49.142;2023-02-01T23:38:43;5.17;;;1.40;;
66893;SDS011;53801;55.786;49.142;2023-02-01T23:41:10;5.68;;;1.60;;
66893;SDS011;53801;55.786;49.142;2023-02-01T23:43:36;5.78;;;0.98;;
66893;SDS011;53801;55.786;49.142;2023-02-01T23:46:30;3.30;;;0.80;;
66893;SDS011;53801;55.786;49.142;2023-02-01T23:49:22;5.38;;;1.23;;
66893;SDS011;53801;55.786;49.142;2023-02-01T23:51:48;4.10;;;1.30;;
66893;SDS011;53801;55.786;49.142;2023-02-01T23:54:17;4.13;;;1.30;;
66893;SDS011;53801;55.786;49.142;2023-02-01T23:56:46;4.47;;;0.70;;
66893;SDS011;53801;55.786;49.142;2023-02-01T23:59:24;4.72;;;1.10;;
